Tomasz Buksa

Chefscout - Cracovia
23 Apr 2028
Sonntag
Verarbeitung

Persönlichkeit

Anpassungsfähigkeit (3) Ehrgeiz (1) Kontroverse (5) Loyalität (2) Druck (10) Professionalität (8) Fairness (18) Temperament (4)

Profil

Trainerstil Demokratisch
Lizenz Kontinentale A
Entschlossenheit 9
Menschenführung 9
Motivation 12
Disziplin 9
Arbeitszufriedenheit
76%
Ermüdung
0%
Rolle Chefscout
Gehalt 13.7K p/W
Vertrag 14.03.2029

Leistung

Verhalten Gut
Trainingseffektivität
26%
Spielerentwicklung
50%
Verletzungsprävention
40%
Taktische Umsetzung
25%

Letzte Ereignisse

Nahm an einer Scouting-Besprechung teil jetzt
Nahm an einer Scouting-Besprechung teil jetzt
Empfahl ein Transferziel jetzt
Empfahl ein Transferziel jetzt
Empfahl ein Transferziel jetzt
Empfahl ein Transferziel 7T her
Empfahl ein Transferziel 7T her
Spieler begutachtet 7T her

Aktuell beobachtet

161
Spieler Verein Status Fähigkeit Vertrauen Beobachtet Zuletzt beobachtet Letzte Stimme
Bernardo Lima Porto Aktiv 109 / 126 40% 1 19.04.2028 -
Thulani Manyama SuperSport United Aktiv 100 / 110 40% 1 19.04.2028 -
Dmytro Strilchuk Podillia Aktiv 96 / 98 40% 2 14.04.2028 -
Finn Jeltsch VfB Stuttgart Aktiv 153 / 135 40% 2 14.04.2028 -
Jorthy Mokio ADO Den Haag Aktiv 144 / 134 40% 2 07.04.2028 -
Germán Barbas Burgos Aktiv 98 / 126 40% 1 07.04.2028 -
Daniel Banjaqui Benfica Aktiv 121 / 124 40% 4 06.04.2028 -
Andrija Bulatović Chamois Niortais Aktiv 126 / 129 40% 1 06.04.2028 -
Martim Cunha Porto Aktiv 99 / 113 40% 4 05.04.2028 -
Tyler Fletcher Rotherham United Aktiv 119 / 114 40% 2 05.04.2028 -
Honest Ahanor Atalanta Aktiv 143 / 148 40% 3 04.04.2028 -
Alani Maritimo Aktiv 113 / 117 40% 3 04.04.2028 -
Jorge Moreno Athletic Bilbao Aktiv 135 / 139 40% 4 03.04.2028 -
Mattia Puzone Siracusa Aktiv 100 / 110 40% 2 03.04.2028 -
Khama Mabunda Platinum Stars Aktiv 87 / 86 40% 1 02.04.2028 -
Ayden Heaven Portsmouth Aktiv 146 / 144 40% 3 01.04.2028 -
Melvin Vučenović Persson Atvidaberg Aktiv 77 / 90 40% 2 01.04.2028 -
Itumeleng Jali Spezia Aktiv 107 / 118 40% 1 31.03.2028 -
Christos Mouzakitis Hull City Aktiv 138 / 148 40% 2 26.03.2028 -
Amine Boukamir Charleroi Aktiv 112 / 99 40% 2 26.03.2028 -
Vinícius Lira São Paulo Aktiv 118 / 128 40% 4 25.03.2028 -
Dmitry Pestryakov Krasnodar Aktiv 110 / 128 40% 1 25.03.2028 -
Riquelme Thompson-Jones Accrington Stanley Aktiv 124 / 121 40% 1 24.03.2028 -
Matvey Bardachev Zenit Aktiv 106 / 112 40% 1 23.03.2028 -
Lucas Høgsberg RC Strasbourg Aktiv 140 / 142 40% 2 22.03.2028 -
Salvador Blopá Sporting CP Aktiv 116 / 133 40% 4 21.03.2028 -
Josh King Newcastle United Aktiv 143 / 156 40% 4 19.03.2028 -
Chris Rigg Sunderland Aktiv 148 / 135 40% 2 18.03.2028 -
Kiani Inge Groningen Aktiv 118 / 125 40% 2 18.03.2028 -
Josh Nichols Oldham Athletic Aktiv 108 / 134 40% 4 16.03.2028 -
Josh Acheampong Everton Aktiv 128 / 151 40% 5 14.03.2028 -
Tylel Tati Chamois Niortais Aktiv 128 / 131 40% 1 14.03.2028 -
Adnan Nainggolan KV Oostende Aktiv 115 / 115 40% 1 11.03.2028 -
Jan Bürger Northampton Town Aktiv 114 / 123 40% 3 09.03.2028 -
Konta Ismaily Aktiv 109 / 117 40% 1 08.03.2028 -
Nathan De Cat SC Freiburg Aktiv 134 / 135 40% 1 07.03.2028 -
Lucas Camejo River Plate Aktiv 91 / 84 40% 7 07.02.2028 -
Esquerdinha Notts County Aktiv 121 / 118 40% 2 07.02.2028 -
Jeremías Merlo Gimnasia La Plata Aktiv 129 / 120 40% 1 05.01.2028 -
Christ Wawa Gefle Aktiv 108 / 94 40% 1 05.01.2028 -
Victor Hernandez Santa Fe Aktiv 121 / 118 40% 5 04.01.2028 -
Matias Siltanen Malmo FF Verhandlung 129 / 136 40% 4 01.01.2028 -
Patrik Wålemark Gaziantep Verhandlung 124 / 125 67% 1 01.01.2028 Befürworten
Sebastián Ramírez Aguilas Doradas Aktiv 110 / 108 40% 1 01.01.2028 -
Hosea Michael Remo Stars Aktiv 79 / 90 40% 1 05.12.2027 -
Tiago Gordillo San Miguel Aktiv 89 / 95 40% 2 04.12.2027 -
Juan Camilo Córdoba Deportivo Pereira Aktiv 91 / 91 40% 4 03.12.2027 -
Zane Albarus Shrewsbury Town Aktiv 101 / 107 40% 5 02.12.2027 -
Agustín De la Cuesta Racing Aktiv 116 / 114 40% 7 01.12.2027 -
Trey Nyoni Rotherham United Aktiv 123 / 139 40% 3 28.11.2027 -
Óscar Hinojosa Metropolitanos Aktiv 91 / 88 40% 3 28.11.2027 -
Nazareno Roselli Defensa y Justicia Aktiv 120 / 117 40% 2 27.11.2027 -
Joel Ezra Enyimba Aktiv 80 / 102 40% 5 26.11.2027 -
Colin Guske Orlando City Aktiv 94 / 100 40% 2 26.11.2027 -
Marco Morigi Caracas Aktiv 98 / 98 40% 2 25.11.2027 -
Francisco Machis Llaneros Aktiv 77 / 92 40% 3 24.11.2027 -
Ivan Borges Defensores Aktiv 80 / 89 40% 2 24.11.2027 -
Daniel Idoko Ikorodu City Aktiv 107 / 97 40% 2 23.11.2027 -
Pedro Soma San Diego Football Club Aktiv 114 / 114 40% 1 22.11.2027 -
Oscar Steinke Brånby Hammarby Aktiv 87 / 114 40% 3 21.11.2027 -
Edvard Pettersen Sandefjord Aktiv 123 / 127 40% 2 20.11.2027 -
Gideon Manaseh Ikorodu City Aktiv 82 / 89 40% 3 05.11.2027 -
Caleb Yirenkyi Coventry City Aktiv 130 / 137 40% 2 01.11.2027 -
Mohamed Moussa Koïta Mathare United Aktiv 111 / 105 40% 1 22.10.2027 -
Onyeuche Ujunwa Ikorodu City Aktiv 88 / 82 40% 3 20.10.2027 -
Ignacio Fernández Boston River Aktiv 96 / 105 40% 2 13.10.2027 -
Nikolay Sotnikov Arsenal Dzerzhinsk Aktiv 95 / 82 40% 1 11.10.2027 -
Mpho Khethang FC Diarra Aktiv 84 / 96 40% 1 12.09.2027 -
Eliás Montiel Borussia Dortmund Aktiv 125 / 130 40% 1 09.09.2027 -
Juan Diego Perdomo Depor Aktiv 96 / 92 40% 1 08.09.2027 -
Matías Canedo Rampla Juniors Aktiv 77 / 90 40% 1 06.09.2027 -
Facundo Batista Penarol Aktiv 125 / 122 40% 1 24.08.2027 -
Pedro Vian Seewald Dolomiti Bellunesi Aktiv 97 / 99 40% 1 18.08.2027 -
Gabriele Bertolini Vicenza Aktiv 100 / 99 40% 3 14.06.2027 -
Romelle Donovan Brentford Aktiv 129 / 129 40% 3 14.06.2027 -
Johannes Eggestein Orlando City Verhandlung 125 / 125 68% 1 01.06.2027 Befürworten
Oleh Ocheretko FC Dallas Verhandlung 129 / 131 67% 1 01.06.2027 Befürworten
Mariusz Stępiński Korona Aktiv 112 / 117 58% 1 01.06.2027 -
Elijah Adebayo Luton Town Aktiv 129 / 120 40% 1 31.05.2027 -
Ryan Oné Sheffield United Aktiv 112 / 125 40% 1 29.05.2027 -
Mateus Mané Burnley Aktiv 130 / 137 40% 2 27.05.2027 -
Mattia Rutigliano Pro Vercelli Aktiv 113 / 93 40% 1 27.05.2027 -
Daniel Awuni Aduana Stars Aktiv 89 / 100 40% 3 25.05.2027 -
Riley Owen Stevenage Aktiv 115 / 97 40% 2 25.05.2027 -
Ethan Williams Peterborough United Aktiv 120 / 122 40% 5 23.05.2027 -
Bongani Jali Free State Stars Aktiv 89 / 92 40% 2 23.05.2027 -
Tiago Freitas Benfica Aktiv 110 / 125 40% 1 20.05.2027 -
Pietro Reggiori Pro Patria Aktiv 89 / 92 40% 1 20.05.2027 -
Eduardo Fernandes Benfica Aktiv 105 / 105 40% 4 19.05.2027 -
Tommaso Cecotti Carpi Aktiv 83 / 89 40% 1 19.05.2027 -
Alphadjo Cissé Lecce Aktiv 119 / 133 40% 1 16.05.2027 -
Víctor Guzmán Sporting CP Aktiv 102 / 97 40% 2 15.05.2027 -
Lander Astiazarán Real Sociedad Aktiv 109 / 125 40% 3 12.05.2027 -
Lucas Ferreira Shakhtar Aktiv 128 / 131 40% 1 11.05.2027 -
Gladson Adjei WAFA Aktiv 76 / 96 40% 4 10.05.2027 -
Mohamadou Kanté Crawley Town Aktiv 124 / 136 40% 2 10.05.2027 -
Sascha Britschgi AC Milan Aktiv 116 / 122 40% 1 09.05.2027 -
Calum Agius Crewe Alexandra Aktiv 110 / 95 40% 2 06.05.2027 -
Vlad Pacos de Ferreira Aktiv 96 / 102 40% 1 04.05.2027 -
Othmane Maamma Watford Aktiv 126 / 141 40% 2 03.05.2027 -
Gomolemo Kekana Maritzburg United Aktiv 92 / 119 40% 2 02.05.2027 -
Kirill Glebov CSKA Moscow Aktiv 127 / 126 40% 2 01.05.2027 -
Nestory Irankunda Watford Aktiv 119 / 115 40% 3 29.04.2027 -
Luke Baartman Ajax Cape Town Aktiv 91 / 123 40% 1 24.04.2027 -
Bennet Mokoena Ajax Cape Town Aktiv 104 / 111 40% 1 23.04.2027 -
Araphat Mohammed Ashanti Gold Aktiv 103 / 111 40% 1 22.04.2027 -
Ishmael Addo Heart of Lions Aktiv 102 / 88 40% 1 19.04.2027 -
Nana Nuhu WAFA Aktiv 74 / 103 40% 1 13.04.2027 -
Rocco Vata Watford Aktiv 137 / 132 40% 1 10.04.2027 -
Leo Castledine Middlesbrough Aktiv 141 / 119 40% 1 10.04.2027 -
Kasper Høgh Huracán Verhandlung 131 / 132 66% 1 01.01.2027 Befürworten
Peter Valjent FK Senica Aktiv 120 / 109 40% 4 31.12.2026 -
Ammar Ramadan DAC Dunajska Streda Aktiv 129 / 114 40% 2 30.12.2026 -
Aune Heggebø West Bromwich Albion Aktiv 137 / 122 40% 1 29.12.2026 -
João Félix Dinamo Moscow Aktiv 146 / 154 40% 1 27.12.2026 -
Max Johnston Derby County Aktiv 114 / 126 40% 1 27.12.2026 -
Cameron Archer Southampton Aktiv 117 / 117 40% 2 23.12.2026 -
Sorba Thomas Stoke City Aktiv 133 / 133 40% 1 22.12.2026 -
Bohdan Viunnyk Lechia Aktiv 105 / 104 40% 3 19.12.2026 -
Mihael Mlinarić Zaglebie Aktiv 123 / 116 40% 1 16.12.2026 -
Brayan Gil Baltika Aktiv 112 / 122 40% 1 14.12.2026 -
Manfred Ugalde Spartak Moscow Aktiv 121 / 140 40% 1 13.12.2026 -
Yorbe Vertessen Red Bull Salzburg Aktiv 114 / 116 40% 2 10.12.2026 -
Mustapha Sangaré Levski Aktiv 116 / 124 40% 1 09.12.2026 -
Armstrong Oko-Flex Levski Aktiv 119 / 128 40% 1 05.12.2026 -
Vladislav Blănuţă Lechia Aktiv 103 / 117 40% 6 04.12.2026 -
Zach Ryan Ismaily Aktiv 89 / 83 40% 1 04.12.2026 -
Luis Palma Lech Aktiv 130 / 132 40% 7 03.12.2026 -
Talles Magno New York City Aktiv 126 / 137 40% 3 02.12.2026 -
Peter Itodo Metalist Aktiv 118 / 108 40% 1 29.11.2026 -
Will Swan Bradford City Aktiv 90 / 116 40% 1 27.11.2026 -
Bénie Traoré New York City Aktiv 134 / 115 40% 1 27.11.2026 -
Hugo Vallejo Piast Aktiv 106 / 102 40% 3 26.11.2026 -
Matthias Seidl Rapid Wien Aktiv 137 / 127 40% 1 24.11.2026 -
Jesus Ferreira Seattle Sounders Aktiv 134 / 129 40% 2 22.11.2026 -
Isaac Matondo Koper Aktiv 103 / 111 40% 1 21.11.2026 -
Etiosa Ighodaro Kaizer Chiefs Aktiv 122 / 120 40% 1 20.11.2026 -
Erik Botheim Viking Aktiv 133 / 113 40% 3 18.11.2026 -
Alberto Soro Dinamo Bucharest Aktiv 121 / 115 40% 1 17.11.2026 -
Suleiman Camara Slovan Bratislava Aktiv 118 / 118 40% 1 16.11.2026 -
Petter Nosa Dahl Rapid Wien Aktiv 138 / 128 40% 1 14.11.2026 -
Victor Olatunji Real Salt Lake Aktiv 122 / 121 40% 2 13.11.2026 -
Rajmund Molnár Pogon Aktiv 103 / 112 40% 1 12.11.2026 -
Dejan Joveljić Seattle Sounders Aktiv 122 / 124 40% 2 10.11.2026 -
Sota Kitano Red Bull Salzburg Aktiv 119 / 132 40% 2 05.11.2026 Mehr Infos nötig
Daniel Karlsbakk Sarpsborg 08 Aktiv 141 / 121 40% 1 05.11.2026 -
Germán Berterame Inter Miami CF Aktiv 134 / 135 40% 1 30.10.2026 -
Wessam Abou Ali Columbus Crew Aktiv 123 / 122 40% 1 30.10.2026 -
Tio Cipot NK Maribor Aktiv 111 / 117 40% 1 23.10.2026 -
Alexander Aravena Portland Timbers Aktiv 115 / 117 40% 2 19.10.2026 -
Kévin Denkey FC Cincinnati Aktiv 127 / 134 40% 1 10.10.2026 -
Kelvin Yeboah Minnesota United FC Aktiv 137 / 120 40% 1 07.10.2026 -
Cheikh Sabaly Vancouver Whitecaps Aktiv 123 / 133 40% 1 05.10.2026 -
Abubakar Garba Nasarawa United Aktiv 99 / 92 40% 1 31.08.2026 -
Hassan Beja AFC Leopards Aktiv 66 / 95 40% 1 31.08.2026 -
Chineme Chinonso Ikorodu City Aktiv 74 / 107 40% 1 23.08.2026 -
Ajay Matthews Millwall Aktiv 86 / 102 40% 1 23.08.2026 -
Jorge Yriarte Slask Aktiv 113 / 112 58% 1 17.08.2026 -
Tosin Olawale El-Kanemi Warriors Aktiv 78 / 89 40% 1 16.08.2026 -
Sergio Carrasco Cobresal Aktiv 76 / 89 40% 1 02.08.2026 -
Senny Mayulu Paris Saint-Germain Aktiv 129 / 128 40% 1 01.08.2026 -